sensor_id;sensor_type;location;lat;lon;timestamp;P1;durP1;ratioP1;P2;durP2;ratioP2
48703;SDS011;34502;51.296;16.918;2024-02-16T00:00:23;35.92;;;22.30;;
48703;SDS011;34502;51.296;16.918;2024-02-16T00:02:51;30.75;;;20.63;;
48703;SDS011;34502;51.296;16.918;2024-02-16T00:05:18;29.20;;;21.02;;
48703;SDS011;34502;51.296;16.918;2024-02-16T00:07:44;30.75;;;21.35;;
48703;SDS011;34502;51.296;16.918;2024-02-16T00:10:10;27.95;;;20.15;;
48703;SDS011;34502;51.296;16.918;2024-02-16T00:12:40;28.13;;;19.95;;
48703;SDS011;34502;51.296;16.918;2024-02-16T00:15:07;29.33;;;20.98;;
48703;SDS011;34502;51.296;16.918;2024-02-16T00:17:33;31.33;;;20.02;;
48703;SDS011;34502;51.296;16.918;2024-02-16T00:19:59;28.40;;;19.98;;
48703;SDS011;34502;51.296;16.918;2024-02-16T00:22:25;28.90;;;20.02;;
48703;SDS011;34502;51.296;16.918;2024-02-16T00:24:52;28.20;;;19.58;;
48703;SDS011;34502;51.296;16.918;2024-02-16T00:27:18;26.50;;;18.40;;
48703;SDS011;34502;51.296;16.918;2024-02-16T00:29:44;29.98;;;20.98;;
48703;SDS011;34502;51.296;16.918;2024-02-16T00:32:13;29.13;;;19.77;;
48703;SDS011;34502;51.296;16.918;2024-02-16T00:34:40;28.02;;;19.67;;
48703;SDS011;34502;51.296;16.918;2024-02-16T00:37:06;27.25;;;20.00;;
48703;SDS011;34502;51.296;16.918;2024-02-16T00:39:37;27.38;;;20.58;;
48703;SDS011;34502;51.296;16.918;2024-02-16T00:42:06;28.60;;;19.52;;
48703;SDS011;34502;51.296;16.918;2024-02-16T00:44:33;26.30;;;18.73;;
48703;SDS011;34502;51.296;16.918;2024-02-16T00:46:59;26.75;;;18.75;;
48703;SDS011;34502;51.296;16.918;2024-02-16T00:49:25;26.20;;;18.20;;
48703;SDS011;34502;51.296;16.918;2024-02-16T00:51:51;25.67;;;18.30;;
48703;SDS011;34502;51.296;16.918;2024-02-16T00:54:18;26.42;;;19.38;;
48703;SDS011;34502;51.296;16.918;2024-02-16T00:56:45;28.10;;;18.98;;
48703;SDS011;34502;51.296;16.918;2024-02-16T00:59:12;28.58;;;18.80;;
48703;SDS011;34502;51.296;16.918;2024-02-16T01:01:38;28.48;;;19.05;;
48703;SDS011;34502;51.296;16.918;2024-02-16T01:04:04;26.08;;;20.02;;
48703;SDS011;34502;51.296;16.918;2024-02-16T01:06:32;25.42;;;18.85;;
48703;SDS011;34502;51.296;16.918;2024-02-16T01:08:58;32.05;;;20.25;;
48703;SDS011;34502;51.296;16.918;2024-02-16T01:11:24;27.92;;;19.98;;
48703;SDS011;34502;51.296;16.918;2024-02-16T01:13:50;30.27;;;20.60;;
48703;SDS011;34502;51.296;16.918;2024-02-16T01:16:17;30.13;;;20.15;;
48703;SDS011;34502;51.296;16.918;2024-02-16T01:18:43;30.20;;;19.98;;
48703;SDS011;34502;51.296;16.918;2024-02-16T01:21:10;32.60;;;21.30;;
48703;SDS011;34502;51.296;16.918;2024-02-16T01:23:36;28.95;;;20.90;;
48703;SDS011;34502;51.296;16.918;2024-02-16T01:26:02;31.35;;;20.77;;
48703;SDS011;34502;51.296;16.918;2024-02-16T01:28:28;28.92;;;21.33;;
48703;SDS011;34502;51.296;16.918;2024-02-16T01:30:55;29.95;;;21.10;;
48703;SDS011;34502;51.296;16.918;2024-02-16T01:33:24;32.10;;;22.30;;
48703;SDS011;34502;51.296;16.918;2024-02-16T01:35:50;31.52;;;21.88;;
48703;SDS011;34502;51.296;16.918;2024-02-16T01:38:16;29.98;;;21.15;;
48703;SDS011;34502;51.296;16.918;2024-02-16T01:40:42;30.00;;;21.30;;
48703;SDS011;34502;51.296;16.918;2024-02-16T01:43:08;31.35;;;23.05;;
48703;SDS011;34502;51.296;16.918;2024-02-16T01:45:34;32.78;;;23.08;;
48703;SDS011;34502;51.296;16.918;2024-02-16T01:48:00;36.42;;;22.52;;
48703;SDS011;34502;51.296;16.918;2024-02-16T01:50:27;32.70;;;23.15;;
48703;SDS011;34502;51.296;16.918;2024-02-16T01:52:54;34.55;;;21.77;;
48703;SDS011;34502;51.296;16.918;2024-02-16T01:55:20;32.20;;;22.23;;
48703;SDS011;34502;51.296;16.918;2024-02-16T01:57:47;35.25;;;23.45;;
48703;SDS011;34502;51.296;16.918;2024-02-16T02:00:14;35.25;;;23.38;;
48703;SDS011;34502;51.296;16.918;2024-02-16T02:02:44;34.08;;;22.48;;
48703;SDS011;34502;51.296;16.918;2024-02-16T02:05:11;35.88;;;23.10;;
48703;SDS011;34502;51.296;16.918;2024-02-16T02:07:37;36.22;;;24.60;;
48703;SDS011;34502;51.296;16.918;2024-02-16T02:10:04;34.35;;;24.40;;
48703;SDS011;34502;51.296;16.918;2024-02-16T02:12:30;36.42;;;24.65;;
48703;SDS011;34502;51.296;16.918;2024-02-16T02:14:56;39.88;;;25.13;;
48703;SDS011;34502;51.296;16.918;2024-02-16T02:17:22;32.50;;;22.23;;
48703;SDS011;34502;51.296;16.918;2024-02-16T02:19:49;32.97;;;21.55;;
48703;SDS011;34502;51.296;16.918;2024-02-16T02:22:15;35.35;;;24.42;;
48703;SDS011;34502;51.296;16.918;2024-02-16T02:24:43;33.10;;;23.38;;
48703;SDS011;34502;51.296;16.918;2024-02-16T02:27:09;33.10;;;22.65;;
48703;SDS011;34502;51.296;16.918;2024-02-16T02:29:36;32.13;;;23.27;;
48703;SDS011;34502;51.296;16.918;2024-02-16T02:32:02;30.42;;;22.50;;
48703;SDS011;34502;51.296;16.918;2024-02-16T02:34:29;37.13;;;24.98;;
48703;SDS011;34502;51.296;16.918;2024-02-16T02:36:55;32.70;;;22.83;;
48703;SDS011;34502;51.296;16.918;2024-02-16T02:39:21;34.97;;;22.27;;
48703;SDS011;34502;51.296;16.918;2024-02-16T02:41:47;35.00;;;24.35;;
48703;SDS011;34502;51.296;16.918;2024-02-16T02:44:13;36.03;;;23.48;;
48703;SDS011;34502;51.296;16.918;2024-02-16T02:46:39;30.17;;;22.80;;
48703;SDS011;34502;51.296;16.918;2024-02-16T02:49:06;27.48;;;21.58;;
48703;SDS011;34502;51.296;16.918;2024-02-16T02:51:33;30.40;;;20.85;;
48703;SDS011;34502;51.296;16.918;2024-02-16T02:53:59;33.30;;;22.60;;
48703;SDS011;34502;51.296;16.918;2024-02-16T02:56:25;29.52;;;21.50;;
48703;SDS011;34502;51.296;16.918;2024-02-16T02:58:51;26.85;;;19.25;;
48703;SDS011;34502;51.296;16.918;2024-02-16T03:01:17;32.90;;;21.40;;
48703;SDS011;34502;51.296;16.918;2024-02-16T03:03:45;30.50;;;21.90;;
48703;SDS011;34502;51.296;16.918;2024-02-16T03:06:12;32.38;;;21.58;;
48703;SDS011;34502;51.296;16.918;2024-02-16T03:08:38;31.67;;;22.20;;
48703;SDS011;34502;51.296;16.918;2024-02-16T03:11:04;32.70;;;22.95;;
48703;SDS011;34502;51.296;16.918;2024-02-16T03:13:34;29.92;;;19.92;;
48703;SDS011;34502;51.296;16.918;2024-02-16T03:16:00;30.55;;;21.88;;
48703;SDS011;34502;51.296;16.918;2024-02-16T03:18:29;30.17;;;21.83;;
48703;SDS011;34502;51.296;16.918;2024-02-16T03:20:55;34.50;;;23.58;;
48703;SDS011;34502;51.296;16.918;2024-02-16T03:23:22;31.52;;;21.83;;
48703;SDS011;34502;51.296;16.918;2024-02-16T03:25:48;26.98;;;20.23;;
48703;SDS011;34502;51.296;16.918;2024-02-16T03:28:14;31.25;;;22.25;;
48703;SDS011;34502;51.296;16.918;2024-02-16T03:30:41;30.73;;;21.30;;
48703;SDS011;34502;51.296;16.918;2024-02-16T03:33:07;30.13;;;21.90;;
48703;SDS011;34502;51.296;16.918;2024-02-16T03:35:34;33.08;;;23.38;;
48703;SDS011;34502;51.296;16.918;2024-02-16T03:38:01;30.70;;;22.52;;
48703;SDS011;34502;51.296;16.918;2024-02-16T03:40:28;30.15;;;22.20;;
48703;SDS011;34502;51.296;16.918;2024-02-16T03:42:54;33.13;;;23.63;;
48703;SDS011;34502;51.296;16.918;2024-02-16T03:45:20;32.00;;;22.52;;
48703;SDS011;34502;51.296;16.918;2024-02-16T03:47:47;29.55;;;21.33;;
48703;SDS011;34502;51.296;16.918;2024-02-16T03:50:19;30.23;;;21.92;;
48703;SDS011;34502;51.296;16.918;2024-02-16T03:52:45;31.90;;;22.30;;
48703;SDS011;34502;51.296;16.918;2024-02-16T03:55:12;30.65;;;22.90;;
48703;SDS011;34502;51.296;16.918;2024-02-16T03:57:39;31.75;;;23.48;;
48703;SDS011;34502;51.296;16.918;2024-02-16T04:00:05;34.30;;;23.83;;
48703;SDS011;34502;51.296;16.918;2024-02-16T04:02:32;31.05;;;21.90;;
48703;SDS011;34502;51.296;16.918;2024-02-16T04:04:58;35.13;;;25.40;;
48703;SDS011;34502;51.296;16.918;2024-02-16T04:07:24;30.98;;;22.77;;
48703;SDS011;34502;51.296;16.918;2024-02-16T04:09:50;32.35;;;24.60;;
48703;SDS011;34502;51.296;16.918;2024-02-16T04:12:16;31.02;;;23.65;;
48703;SDS011;34502;51.296;16.918;2024-02-16T04:14:42;36.92;;;24.55;;
48703;SDS011;34502;51.296;16.918;2024-02-16T04:17:09;32.95;;;24.10;;
48703;SDS011;34502;51.296;16.918;2024-02-16T04:19:38;31.38;;;22.63;;
48703;SDS011;34502;51.296;16.918;2024-02-16T04:22:04;31.92;;;24.50;;
48703;SDS011;34502;51.296;16.918;2024-02-16T04:24:30;28.98;;;21.83;;
48703;SDS011;34502;51.296;16.918;2024-02-16T04:26:56;31.75;;;21.73;;
48703;SDS011;34502;51.296;16.918;2024-02-16T04:29:22;30.70;;;22.33;;
48703;SDS011;34502;51.296;16.918;2024-02-16T04:31:48;32.97;;;23.00;;
48703;SDS011;34502;51.296;16.918;2024-02-16T04:34:14;34.67;;;23.15;;
48703;SDS011;34502;51.296;16.918;2024-02-16T04:36:41;29.02;;;21.50;;
48703;SDS011;34502;51.296;16.918;2024-02-16T04:39:08;26.65;;;19.98;;
48703;SDS011;34502;51.296;16.918;2024-02-16T04:41:39;29.35;;;19.98;;
48703;SDS011;34502;51.296;16.918;2024-02-16T04:44:06;29.88;;;21.05;;
48703;SDS011;34502;51.296;16.918;2024-02-16T04:46:32;37.47;;;24.38;;
48703;SDS011;34502;51.296;16.918;2024-02-16T04:48:58;31.52;;;21.90;;
48703;SDS011;34502;51.296;16.918;2024-02-16T04:51:24;31.70;;;22.58;;
48703;SDS011;34502;51.296;16.918;2024-02-16T04:53:50;29.10;;;21.10;;
48703;SDS011;34502;51.296;16.918;2024-02-16T04:56:16;32.53;;;23.55;;
48703;SDS011;34502;51.296;16.918;2024-02-16T04:58:42;31.42;;;22.15;;
48703;SDS011;34502;51.296;16.918;2024-02-16T05:01:08;32.28;;;23.13;;
48703;SDS011;34502;51.296;16.918;2024-02-16T05:03:35;30.45;;;21.52;;
48703;SDS011;34502;51.296;16.918;2024-02-16T05:06:02;31.67;;;21.88;;
48703;SDS011;34502;51.296;16.918;2024-02-16T05:08:28;30.55;;;22.05;;
48703;SDS011;34502;51.296;16.918;2024-02-16T05:10:55;30.83;;;21.08;;
48703;SDS011;34502;51.296;16.918;2024-02-16T05:13:21;31.35;;;22.63;;
48703;SDS011;34502;51.296;16.918;2024-02-16T05:15:48;30.10;;;21.83;;
48703;SDS011;34502;51.296;16.918;2024-02-16T05:18:14;31.80;;;22.75;;
48703;SDS011;34502;51.296;16.918;2024-02-16T05:20:41;36.63;;;23.02;;
48703;SDS011;34502;51.296;16.918;2024-02-16T05:23:08;35.38;;;25.67;;
48703;SDS011;34502;51.296;16.918;2024-02-16T05:25:34;34.38;;;22.85;;
48703;SDS011;34502;51.296;16.918;2024-02-16T05:28:00;34.35;;;23.83;;
48703;SDS011;34502;51.296;16.918;2024-02-16T05:30:27;32.75;;;24.02;;
48703;SDS011;34502;51.296;16.918;2024-02-16T05:32:53;34.17;;;24.05;;
48703;SDS011;34502;51.296;16.918;2024-02-16T05:35:23;32.85;;;23.27;;
48703;SDS011;34502;51.296;16.918;2024-02-16T05:37:52;34.65;;;24.15;;
48703;SDS011;34502;51.296;16.918;2024-02-16T05:40:20;31.48;;;23.08;;
48703;SDS011;34502;51.296;16.918;2024-02-16T05:42:54;33.10;;;23.13;;
48703;SDS011;34502;51.296;16.918;2024-02-16T05:45:23;37.28;;;25.80;;
48703;SDS011;34502;51.296;16.918;2024-02-16T05:47:49;34.60;;;23.67;;
48703;SDS011;34502;51.296;16.918;2024-02-16T05:50:16;35.35;;;24.88;;
48703;SDS011;34502;51.296;16.918;2024-02-16T05:52:42;32.25;;;22.92;;
48703;SDS011;34502;51.296;16.918;2024-02-16T05:55:09;39.25;;;24.83;;
48703;SDS011;34502;51.296;16.918;2024-02-16T05:57:36;37.78;;;24.58;;
48703;SDS011;34502;51.296;16.918;2024-02-16T06:00:02;37.67;;;25.25;;
48703;SDS011;34502;51.296;16.918;2024-02-16T06:02:30;34.08;;;23.80;;
48703;SDS011;34502;51.296;16.918;2024-02-16T06:04:59;35.28;;;24.05;;
48703;SDS011;34502;51.296;16.918;2024-02-16T06:07:27;31.15;;;22.23;;
48703;SDS011;34502;51.296;16.918;2024-02-16T06:09:57;39.10;;;24.80;;
48703;SDS011;34502;51.296;16.918;2024-02-16T06:12:23;32.97;;;23.52;;
48703;SDS011;34502;51.296;16.918;2024-02-16T06:14:50;32.40;;;23.80;;
48703;SDS011;34502;51.296;16.918;2024-02-16T06:17:18;37.35;;;24.70;;
48703;SDS011;34502;51.296;16.918;2024-02-16T06:19:44;36.75;;;24.65;;
48703;SDS011;34502;51.296;16.918;2024-02-16T06:22:10;37.42;;;23.38;;
48703;SDS011;34502;51.296;16.918;2024-02-16T06:24:37;33.47;;;24.55;;
48703;SDS011;34502;51.296;16.918;2024-02-16T06:27:03;38.42;;;26.08;;
48703;SDS011;34502;51.296;16.918;2024-02-16T06:29:30;33.13;;;22.83;;
48703;SDS011;34502;51.296;16.918;2024-02-16T06:31:56;35.10;;;24.17;;
48703;SDS011;34502;51.296;16.918;2024-02-16T06:34:22;34.33;;;23.85;;
48703;SDS011;34502;51.296;16.918;2024-02-16T06:36:48;31.60;;;23.33;;
48703;SDS011;34502;51.296;16.918;2024-02-16T06:39:15;32.33;;;23.30;;
48703;SDS011;34502;51.296;16.918;2024-02-16T06:41:43;32.20;;;23.05;;
48703;SDS011;34502;51.296;16.918;2024-02-16T06:44:10;36.75;;;23.30;;
48703;SDS011;34502;51.296;16.918;2024-02-16T06:46:37;35.85;;;23.88;;
48703;SDS011;34502;51.296;16.918;2024-02-16T06:49:03;31.70;;;21.45;;
48703;SDS011;34502;51.296;16.918;2024-02-16T06:51:29;32.50;;;21.92;;
48703;SDS011;34502;51.296;16.918;2024-02-16T06:53:55;32.60;;;22.15;;
48703;SDS011;34502;51.296;16.918;2024-02-16T06:56:22;34.00;;;22.10;;
48703;SDS011;34502;51.296;16.918;2024-02-16T06:58:49;27.95;;;20.17;;
48703;SDS011;34502;51.296;16.918;2024-02-16T07:01:15;33.50;;;22.48;;
48703;SDS011;34502;51.296;16.918;2024-02-16T07:03:43;30.35;;;21.13;;
48703;SDS011;34502;51.296;16.918;2024-02-16T07:06:10;32.30;;;21.70;;
48703;SDS011;34502;51.296;16.918;2024-02-16T07:08:38;31.73;;;21.27;;
48703;SDS011;34502;51.296;16.918;2024-02-16T07:11:05;30.10;;;20.08;;
48703;SDS011;34502;51.296;16.918;2024-02-16T07:13:31;26.70;;;19.42;;
48703;SDS011;34502;51.296;16.918;2024-02-16T07:15:58;30.55;;;21.00;;
48703;SDS011;34502;51.296;16.918;2024-02-16T07:18:24;26.67;;;18.92;;
48703;SDS011;34502;51.296;16.918;2024-02-16T07:20:51;24.17;;;18.33;;
48703;SDS011;34502;51.296;16.918;2024-02-16T07:23:17;28.00;;;20.20;;
48703;SDS011;34502;51.296;16.918;2024-02-16T07:25:43;28.25;;;19.15;;
48703;SDS011;34502;51.296;16.918;2024-02-16T07:28:10;23.40;;;17.20;;
48703;SDS011;34502;51.296;16.918;2024-02-16T07:30:37;26.23;;;18.75;;
48703;SDS011;34502;51.296;16.918;2024-02-16T07:33:04;28.55;;;19.08;;
48703;SDS011;34502;51.296;16.918;2024-02-16T07:35:30;22.75;;;17.05;;
48703;SDS011;34502;51.296;16.918;2024-02-16T07:37:56;24.80;;;16.80;;
48703;SDS011;34502;51.296;16.918;2024-02-16T07:40:22;25.15;;;17.70;;
48703;SDS011;34502;51.296;16.918;2024-02-16T07:42:48;22.27;;;16.88;;
48703;SDS011;34502;51.296;16.918;2024-02-16T07:45:15;25.15;;;17.70;;
48703;SDS011;34502;51.296;16.918;2024-02-16T07:47:41;26.55;;;17.42;;
48703;SDS011;34502;51.296;16.918;2024-02-16T07:50:07;24.52;;;17.67;;
48703;SDS011;34502;51.296;16.918;2024-02-16T07:52:34;19.52;;;15.65;;
48703;SDS011;34502;51.296;16.918;2024-02-16T07:55:00;23.33;;;17.00;;
48703;SDS011;34502;51.296;16.918;2024-02-16T07:57:26;25.23;;;16.40;;
48703;SDS011;34502;51.296;16.918;2024-02-16T07:59:53;21.27;;;15.73;;
48703;SDS011;34502;51.296;16.918;2024-02-16T08:02:19;20.83;;;16.10;;
48703;SDS011;34502;51.296;16.918;2024-02-16T08:04:48;24.48;;;14.98;;
48703;SDS011;34502;51.296;16.918;2024-02-16T08:07:16;19.95;;;15.48;;
48703;SDS011;34502;51.296;16.918;2024-02-16T08:09:45;21.02;;;15.43;;
48703;SDS011;34502;51.296;16.918;2024-02-16T08:12:12;18.58;;;14.88;;
48703;SDS011;34502;51.296;16.918;2024-02-16T08:14:38;21.00;;;14.75;;
48703;SDS011;34502;51.296;16.918;2024-02-16T08:17:05;18.73;;;13.80;;
48703;SDS011;34502;51.296;16.918;2024-02-16T08:19:36;22.42;;;14.20;;
48703;SDS011;34502;51.296;16.918;2024-02-16T08:22:02;17.38;;;13.32;;
48703;SDS011;34502;51.296;16.918;2024-02-16T08:24:33;23.90;;;12.75;;
48703;SDS011;34502;51.296;16.918;2024-02-16T08:29:29;17.63;;;12.48;;
48703;SDS011;34502;51.296;16.918;2024-02-16T08:31:55;17.05;;;13.02;;
48703;SDS011;34502;51.296;16.918;2024-02-16T08:34:21;20.15;;;13.13;;
48703;SDS011;34502;51.296;16.918;2024-02-16T08:36:48;16.77;;;12.55;;
48703;SDS011;34502;51.296;16.918;2024-02-16T08:39:14;18.38;;;11.98;;
48703;SDS011;34502;51.296;16.918;2024-02-16T08:41:41;15.65;;;12.07;;
48703;SDS011;34502;51.296;16.918;2024-02-16T08:44:09;17.05;;;12.75;;
48703;SDS011;34502;51.296;16.918;2024-02-16T08:46:38;15.60;;;12.02;;
48703;SDS011;34502;51.296;16.918;2024-02-16T08:49:05;16.17;;;11.77;;
48703;SDS011;34502;51.296;16.918;2024-02-16T08:51:32;18.73;;;12.40;;
48703;SDS011;34502;51.296;16.918;2024-02-16T08:53:58;16.92;;;12.60;;
48703;SDS011;34502;51.296;16.918;2024-02-16T08:56:25;16.60;;;12.05;;
48703;SDS011;34502;51.296;16.918;2024-02-16T08:58:52;18.02;;;11.32;;
48703;SDS011;34502;51.296;16.918;2024-02-16T09:01:18;18.25;;;12.38;;
48703;SDS011;34502;51.296;16.918;2024-02-16T09:03:44;15.40;;;11.55;;
48703;SDS011;34502;51.296;16.918;2024-02-16T09:06:12;16.23;;;11.07;;
48703;SDS011;34502;51.296;16.918;2024-02-16T09:08:38;19.95;;;12.70;;
48703;SDS011;34502;51.296;16.918;2024-02-16T09:11:04;17.08;;;11.88;;
48703;SDS011;34502;51.296;16.918;2024-02-16T09:13:35;13.40;;;10.63;;
48703;SDS011;34502;51.296;16.918;2024-02-16T09:16:01;13.23;;;10.05;;
48703;SDS011;34502;51.296;16.918;2024-02-16T09:18:31;18.10;;;10.60;;
48703;SDS011;34502;51.296;16.918;2024-02-16T09:20:57;15.43;;;9.50;;
48703;SDS011;34502;51.296;16.918;2024-02-16T09:23:23;15.90;;;10.00;;
48703;SDS011;34502;51.296;16.918;2024-02-16T09:25:49;14.80;;;10.13;;
48703;SDS011;34502;51.296;16.918;2024-02-16T09:28:16;14.02;;;9.38;;
48703;SDS011;34502;51.296;16.918;2024-02-16T09:30:44;13.43;;;9.82;;
48703;SDS011;34502;51.296;16.918;2024-02-16T09:33:10;13.77;;;9.20;;
48703;SDS011;34502;51.296;16.918;2024-02-16T09:35:36;18.58;;;10.73;;
48703;SDS011;34502;51.296;16.918;2024-02-16T09:38:02;13.75;;;8.63;;
48703;SDS011;34502;51.296;16.918;2024-02-16T09:40:29;13.20;;;8.88;;
48703;SDS011;34502;51.296;16.918;2024-02-16T09:42:55;10.13;;;7.75;;
48703;SDS011;34502;51.296;16.918;2024-02-16T09:45:21;10.15;;;7.07;;
48703;SDS011;34502;51.296;16.918;2024-02-16T09:47:49;12.82;;;7.25;;
48703;SDS011;34502;51.296;16.918;2024-02-16T09:50:16;11.88;;;6.57;;
48703;SDS011;34502;51.296;16.918;2024-02-16T09:52:46;7.57;;;5.47;;
48703;SDS011;34502;51.296;16.918;2024-02-16T09:55:13;9.25;;;5.97;;
48703;SDS011;34502;51.296;16.918;2024-02-16T09:57:40;10.05;;;6.68;;
48703;SDS011;34502;51.296;16.918;2024-02-16T10:00:08;8.20;;;6.28;;
48703;SDS011;34502;51.296;16.918;2024-02-16T10:02:45;9.07;;;6.13;;
48703;SDS011;34502;51.296;16.918;2024-02-16T10:05:16;12.38;;;6.57;;
48703;SDS011;34502;51.296;16.918;2024-02-16T10:07:43;8.65;;;6.35;;
48703;SDS011;34502;51.296;16.918;2024-02-16T10:12:49;7.75;;;5.03;;
48703;SDS011;34502;51.296;16.918;2024-02-16T10:15:21;8.77;;;5.40;;
48703;SDS011;34502;51.296;16.918;2024-02-16T10:17:59;7.63;;;5.18;;
48703;SDS011;34502;51.296;16.918;2024-02-16T10:20:26;8.75;;;5.10;;
48703;SDS011;34502;51.296;16.918;2024-02-16T10:23:05;6.93;;;4.57;;
48703;SDS011;34502;51.296;16.918;2024-02-16T10:25:32;6.05;;;3.80;;
48703;SDS011;34502;51.296;16.918;2024-02-16T10:27:59;10.07;;;3.80;;
48703;SDS011;34502;51.296;16.918;2024-02-16T10:30:29;6.45;;;4.28;;
48703;SDS011;34502;51.296;16.918;2024-02-16T10:32:56;4.40;;;3.95;;
48703;SDS011;34502;51.296;16.918;2024-02-16T10:35:24;5.38;;;3.88;;
48703;SDS011;34502;51.296;16.918;2024-02-16T10:37:54;5.03;;;3.60;;
48703;SDS011;34502;51.296;16.918;2024-02-16T10:40:22;5.63;;;4.03;;
48703;SDS011;34502;51.296;16.918;2024-02-16T10:42:49;6.43;;;3.97;;
48703;SDS011;34502;51.296;16.918;2024-02-16T10:45:16;7.68;;;4.40;;
48703;SDS011;34502;51.296;16.918;2024-02-16T10:47:44;6.10;;;3.67;;
48703;SDS011;34502;51.296;16.918;2024-02-16T10:50:10;5.13;;;3.80;;
48703;SDS011;34502;51.296;16.918;2024-02-16T10:52:38;6.32;;;3.92;;
48703;SDS011;34502;51.296;16.918;2024-02-16T10:55:06;6.32;;;4.60;;
48703;SDS011;34502;51.296;16.918;2024-02-16T10:57:35;6.00;;;4.10;;
48703;SDS011;34502;51.296;16.918;2024-02-16T11:00:06;7.68;;;4.45;;
48703;SDS011;34502;51.296;16.918;2024-02-16T11:02:50;8.88;;;4.40;;
48703;SDS011;34502;51.296;16.918;2024-02-16T11:05:40;5.40;;;4.07;;
48703;SDS011;34502;51.296;16.918;2024-02-16T11:08:14;8.43;;;4.38;;
48703;SDS011;34502;51.296;16.918;2024-02-16T11:10:53;5.90;;;4.07;;
48703;SDS011;34502;51.296;16.918;2024-02-16T11:13:23;5.03;;;3.43;;
48703;SDS011;34502;51.296;16.918;2024-02-16T11:15:57;5.25;;;3.42;;
48703;SDS011;34502;51.296;16.918;2024-02-16T11:18:31;7.88;;;3.78;;
48703;SDS011;34502;51.296;16.918;2024-02-16T11:21:01;5.30;;;3.95;;
48703;SDS011;34502;51.296;16.918;2024-02-16T11:23:29;9.77;;;4.22;;
48703;SDS011;34502;51.296;16.918;2024-02-16T11:26:05;9.10;;;4.07;;
48703;SDS011;34502;51.296;16.918;2024-02-16T11:28:38;10.65;;;4.60;;
48703;SDS011;34502;51.296;16.918;2024-02-16T11:31:07;7.32;;;3.85;;
48703;SDS011;34502;51.296;16.918;2024-02-16T11:33:34;7.78;;;4.10;;
48703;SDS011;34502;51.296;16.918;2024-02-16T11:36:01;6.07;;;4.15;;
48703;SDS011;34502;51.296;16.918;2024-02-16T11:38:31;6.38;;;4.00;;
48703;SDS011;34502;51.296;16.918;2024-02-16T11:41:07;8.45;;;3.72;;
48703;SDS011;34502;51.296;16.918;2024-02-16T11:43:33;6.43;;;3.75;;
48703;SDS011;34502;51.296;16.918;2024-02-16T11:46:10;5.95;;;3.90;;
48703;SDS011;34502;51.296;16.918;2024-02-16T11:48:38;5.85;;;3.50;;
48703;SDS011;34502;51.296;16.918;2024-02-16T11:51:04;5.43;;;3.53;;
48703;SDS011;34502;51.296;16.918;2024-02-16T11:53:31;5.38;;;3.55;;
48703;SDS011;34502;51.296;16.918;2024-02-16T11:55:58;9.60;;;4.68;;
48703;SDS011;34502;51.296;16.918;2024-02-16T11:58:25;6.68;;;3.80;;
48703;SDS011;34502;51.296;16.918;2024-02-16T12:00:52;7.55;;;3.88;;
48703;SDS011;34502;51.296;16.918;2024-02-16T12:03:21;5.38;;;3.45;;
48703;SDS011;34502;51.296;16.918;2024-02-16T12:05:52;4.53;;;3.22;;
48703;SDS011;34502;51.296;16.918;2024-02-16T12:08:19;4.78;;;3.70;;
48703;SDS011;34502;51.296;16.918;2024-02-16T12:10:47;5.93;;;3.70;;
48703;SDS011;34502;51.296;16.918;2024-02-16T12:13:19;9.43;;;3.72;;
48703;SDS011;34502;51.296;16.918;2024-02-16T12:15:46;4.90;;;3.10;;
48703;SDS011;34502;51.296;16.918;2024-02-16T12:18:22;6.32;;;3.25;;
48703;SDS011;34502;51.296;16.918;2024-02-16T12:21:05;8.73;;;4.32;;
48703;SDS011;34502;51.296;16.918;2024-02-16T12:23:32;6.10;;;3.10;;
48703;SDS011;34502;51.296;16.918;2024-02-16T12:25:59;6.28;;;3.25;;
48703;SDS011;34502;51.296;16.918;2024-02-16T12:28:26;7.30;;;3.67;;
48703;SDS011;34502;51.296;16.918;2024-02-16T12:30:54;6.25;;;3.42;;
48703;SDS011;34502;51.296;16.918;2024-02-16T12:33:23;5.10;;;3.40;;
48703;SDS011;34502;51.296;16.918;2024-02-16T12:35:49;7.10;;;3.65;;
48703;SDS011;34502;51.296;16.918;2024-02-16T12:38:16;5.95;;;3.42;;
48703;SDS011;34502;51.296;16.918;2024-02-16T12:40:44;5.15;;;3.35;;
48703;SDS011;34502;51.296;16.918;2024-02-16T12:43:13;6.00;;;3.35;;
48703;SDS011;34502;51.296;16.918;2024-02-16T12:45:40;4.07;;;3.60;;
48703;SDS011;34502;51.296;16.918;2024-02-16T12:48:07;7.40;;;3.65;;
48703;SDS011;34502;51.296;16.918;2024-02-16T12:50:34;5.90;;;3.70;;
48703;SDS011;34502;51.296;16.918;2024-02-16T12:53:01;7.68;;;3.78;;
48703;SDS011;34502;51.296;16.918;2024-02-16T12:55:27;10.68;;;3.80;;
48703;SDS011;34502;51.296;16.918;2024-02-16T12:57:54;10.05;;;4.10;;
48703;SDS011;34502;51.296;16.918;2024-02-16T13:00:21;5.38;;;3.65;;
48703;SDS011;34502;51.296;16.918;2024-02-16T13:02:47;6.35;;;3.55;;
48703;SDS011;34502;51.296;16.918;2024-02-16T13:05:13;7.32;;;3.67;;
48703;SDS011;34502;51.296;16.918;2024-02-16T13:07:39;5.45;;;3.70;;
48703;SDS011;34502;51.296;16.918;2024-02-16T13:10:07;5.50;;;3.60;;
48703;SDS011;34502;51.296;16.918;2024-02-16T13:12:33;8.27;;;4.05;;
48703;SDS011;34502;51.296;16.918;2024-02-16T13:15:00;17.83;;;7.47;;
48703;SDS011;34502;51.296;16.918;2024-02-16T13:17:27;5.63;;;3.58;;
48703;SDS011;34502;51.296;16.918;2024-02-16T13:19:54;7.53;;;3.72;;
48703;SDS011;34502;51.296;16.918;2024-02-16T13:22:20;4.95;;;3.40;;
48703;SDS011;34502;51.296;16.918;2024-02-16T13:24:46;7.75;;;3.92;;
48703;SDS011;34502;51.296;16.918;2024-02-16T13:27:12;8.98;;;4.05;;
48703;SDS011;34502;51.296;16.918;2024-02-16T13:29:38;18.70;;;4.82;;
48703;SDS011;34502;51.296;16.918;2024-02-16T13:32:04;6.25;;;4.25;;
48703;SDS011;34502;51.296;16.918;2024-02-16T13:34:30;4.78;;;3.13;;
48703;SDS011;34502;51.296;16.918;2024-02-16T13:36:56;8.95;;;4.07;;
48703;SDS011;34502;51.296;16.918;2024-02-16T13:39:23;6.20;;;4.00;;
48703;SDS011;34502;51.296;16.918;2024-02-16T13:41:49;9.50;;;3.92;;
48703;SDS011;34502;51.296;16.918;2024-02-16T13:44:16;5.95;;;3.88;;
48703;SDS011;34502;51.296;16.918;2024-02-16T13:46:44;6.35;;;3.97;;
48703;SDS011;34502;51.296;16.918;2024-02-16T13:49:13;6.45;;;4.65;;
48703;SDS011;34502;51.296;16.918;2024-02-16T13:51:40;8.95;;;4.03;;
48703;SDS011;34502;51.296;16.918;2024-02-16T13:54:06;5.65;;;3.30;;
48703;SDS011;34502;51.296;16.918;2024-02-16T13:56:33;6.03;;;3.72;;
48703;SDS011;34502;51.296;16.918;2024-02-16T13:59:01;6.75;;;4.05;;
48703;SDS011;34502;51.296;16.918;2024-02-16T14:01:28;5.13;;;3.55;;
48703;SDS011;34502;51.296;16.918;2024-02-16T14:03:54;4.90;;;4.00;;
48703;SDS011;34502;51.296;16.918;2024-02-16T14:06:20;9.10;;;3.65;;
48703;SDS011;34502;51.296;16.918;2024-02-16T14:08:46;4.88;;;3.72;;
48703;SDS011;34502;51.296;16.918;2024-02-16T14:11:14;3.88;;;3.47;;
48703;SDS011;34502;51.296;16.918;2024-02-16T14:13:40;6.20;;;4.32;;
48703;SDS011;34502;51.296;16.918;2024-02-16T14:16:06;6.45;;;3.83;;
48703;SDS011;34502;51.296;16.918;2024-02-16T14:18:33;7.93;;;4.38;;
48703;SDS011;34502;51.296;16.918;2024-02-16T14:20:59;6.78;;;4.30;;